sensor_id;sensor_type;location;lat;lon;timestamp;P1;durP1;ratioP1;P2;durP2;ratioP2
70825;SDS011;58446;41.490;22.098;2024-02-26T00:01:37;10.60;;;6.57;;
70825;SDS011;58446;41.490;22.098;2024-02-26T00:04:03;9.75;;;6.45;;
70825;SDS011;58446;41.490;22.098;2024-02-26T00:06:29;9.93;;;6.97;;
70825;SDS011;58446;41.490;22.098;2024-02-26T00:08:55;11.25;;;7.43;;
70825;SDS011;58446;41.490;22.098;2024-02-26T00:11:21;11.73;;;7.53;;
70825;SDS011;58446;41.490;22.098;2024-02-26T00:13:47;12.20;;;6.90;;
70825;SDS011;58446;41.490;22.098;2024-02-26T00:16:12;10.70;;;6.18;;
70825;SDS011;58446;41.490;22.098;2024-02-26T00:18:38;10.33;;;6.47;;
70825;SDS011;58446;41.490;22.098;2024-02-26T00:21:04;12.27;;;6.13;;
70825;SDS011;58446;41.490;22.098;2024-02-26T00:23:30;11.07;;;6.03;;
70825;SDS011;58446;41.490;22.098;2024-02-26T00:25:55;8.73;;;6.13;;
70825;SDS011;58446;41.490;22.098;2024-02-26T00:28:21;11.10;;;6.10;;
70825;SDS011;58446;41.490;22.098;2024-02-26T00:30:47;10.13;;;6.07;;
70825;SDS011;58446;41.490;22.098;2024-02-26T00:33:14;9.10;;;6.37;;
70825;SDS011;58446;41.490;22.098;2024-02-26T00:35:41;10.15;;;5.88;;
70825;SDS011;58446;41.490;22.098;2024-02-26T00:38:07;11.95;;;6.32;;
70825;SDS011;58446;41.490;22.098;2024-02-26T00:40:33;12.40;;;6.50;;
70825;SDS011;58446;41.490;22.098;2024-02-26T00:42:59;9.73;;;6.95;;
70825;SDS011;58446;41.490;22.098;2024-02-26T00:45:25;10.27;;;6.68;;
70825;SDS011;58446;41.490;22.098;2024-02-26T00:47:50;10.97;;;6.60;;
70825;SDS011;58446;41.490;22.098;2024-02-26T00:50:16;10.60;;;6.60;;
70825;SDS011;58446;41.490;22.098;2024-02-26T00:52:42;11.37;;;6.50;;
70825;SDS011;58446;41.490;22.098;2024-02-26T00:55:08;10.85;;;7.05;;
70825;SDS011;58446;41.490;22.098;2024-02-26T00:57:34;10.10;;;6.67;;
70825;SDS011;58446;41.490;22.098;2024-02-26T00:59:59;10.63;;;6.60;;
70825;SDS011;58446;41.490;22.098;2024-02-26T01:02:26;11.50;;;6.93;;
70825;SDS011;58446;41.490;22.098;2024-02-26T01:04:51;11.47;;;6.43;;
70825;SDS011;58446;41.490;22.098;2024-02-26T01:07:17;10.77;;;6.55;;
70825;SDS011;58446;41.490;22.098;2024-02-26T01:09:44;11.20;;;7.03;;
70825;SDS011;58446;41.490;22.098;2024-02-26T01:12:09;12.77;;;6.53;;
70825;SDS011;58446;41.490;22.098;2024-02-26T01:14:35;12.27;;;7.80;;
70825;SDS011;58446;41.490;22.098;2024-02-26T01:17:01;12.43;;;7.63;;
70825;SDS011;58446;41.490;22.098;2024-02-26T01:19:27;9.73;;;6.05;;
70825;SDS011;58446;41.490;22.098;2024-02-26T01:21:52;14.33;;;7.97;;
70825;SDS011;58446;41.490;22.098;2024-02-26T01:24:18;13.82;;;7.45;;
70825;SDS011;58446;41.490;22.098;2024-02-26T01:26:44;11.20;;;6.70;;
70825;SDS011;58446;41.490;22.098;2024-02-26T01:29:10;11.87;;;7.30;;
70825;SDS011;58446;41.490;22.098;2024-02-26T01:31:35;11.55;;;7.03;;
70825;SDS011;58446;41.490;22.098;2024-02-26T01:34:01;14.00;;;6.77;;
70825;SDS011;58446;41.490;22.098;2024-02-26T01:36:27;12.25;;;7.45;;
70825;SDS011;58446;41.490;22.098;2024-02-26T01:38:52;11.13;;;6.97;;
70825;SDS011;58446;41.490;22.098;2024-02-26T01:41:18;12.05;;;7.25;;
70825;SDS011;58446;41.490;22.098;2024-02-26T01:43:44;10.50;;;6.50;;
70825;SDS011;58446;41.490;22.098;2024-02-26T01:46:11;10.52;;;6.68;;
70825;SDS011;58446;41.490;22.098;2024-02-26T01:48:42;10.33;;;6.73;;
70825;SDS011;58446;41.490;22.098;2024-02-26T01:51:09;10.68;;;6.63;;
70825;SDS011;58446;41.490;22.098;2024-02-26T01:53:37;11.73;;;6.95;;
70825;SDS011;58446;41.490;22.098;2024-02-26T01:56:03;11.77;;;7.70;;
70825;SDS011;58446;41.490;22.098;2024-02-26T01:58:29;12.88;;;8.10;;
70825;SDS011;58446;41.490;22.098;2024-02-26T02:00:56;11.77;;;7.60;;
70825;SDS011;58446;41.490;22.098;2024-02-26T02:03:23;12.55;;;7.22;;
70825;SDS011;58446;41.490;22.098;2024-02-26T02:05:49;12.15;;;8.20;;
70825;SDS011;58446;41.490;22.098;2024-02-26T02:08:15;12.63;;;7.80;;
70825;SDS011;58446;41.490;22.098;2024-02-26T02:10:41;13.37;;;7.60;;
70825;SDS011;58446;41.490;22.098;2024-02-26T02:13:07;12.00;;;7.50;;
70825;SDS011;58446;41.490;22.098;2024-02-26T02:15:34;11.77;;;7.93;;
70825;SDS011;58446;41.490;22.098;2024-02-26T02:17:59;12.60;;;8.10;;
70825;SDS011;58446;41.490;22.098;2024-02-26T02:20:35;13.10;;;8.27;;
70825;SDS011;58446;41.490;22.098;2024-02-26T02:23:01;15.30;;;8.52;;
70825;SDS011;58446;41.490;22.098;2024-02-26T02:25:28;13.40;;;8.60;;
70825;SDS011;58446;41.490;22.098;2024-02-26T02:27:54;13.23;;;8.80;;
70825;SDS011;58446;41.490;22.098;2024-02-26T02:30:21;16.50;;;9.02;;
70825;SDS011;58446;41.490;22.098;2024-02-26T02:32:49;21.30;;;12.80;;
70825;SDS011;58446;41.490;22.098;2024-02-26T02:35:14;17.40;;;10.87;;
70825;SDS011;58446;41.490;22.098;2024-02-26T02:37:40;15.73;;;10.20;;
70825;SDS011;58446;41.490;22.098;2024-02-26T02:40:07;20.67;;;13.18;;
70825;SDS011;58446;41.490;22.098;2024-02-26T02:42:33;16.90;;;10.63;;
70825;SDS011;58446;41.490;22.098;2024-02-26T02:44:58;17.27;;;11.50;;
70825;SDS011;58446;41.490;22.098;2024-02-26T02:47:24;16.97;;;10.73;;
70825;SDS011;58446;41.490;22.098;2024-02-26T02:49:50;21.23;;;11.90;;
70825;SDS011;58446;41.490;22.098;2024-02-26T02:52:15;17.43;;;10.77;;
70825;SDS011;58446;41.490;22.098;2024-02-26T02:54:41;19.42;;;10.73;;
70825;SDS011;58446;41.490;22.098;2024-02-26T02:57:10;20.63;;;12.70;;
70825;SDS011;58446;41.490;22.098;2024-02-26T02:59:36;18.47;;;11.40;;
70825;SDS011;58446;41.490;22.098;2024-02-26T03:02:02;22.77;;;12.60;;
70825;SDS011;58446;41.490;22.098;2024-02-26T03:04:28;18.45;;;11.82;;
70825;SDS011;58446;41.490;22.098;2024-02-26T03:06:54;18.02;;;11.40;;
70825;SDS011;58446;41.490;22.098;2024-02-26T03:09:20;18.37;;;11.23;;
70825;SDS011;58446;41.490;22.098;2024-02-26T03:11:46;19.65;;;10.90;;
70825;SDS011;58446;41.490;22.098;2024-02-26T03:14:11;16.20;;;10.93;;
70825;SDS011;58446;41.490;22.098;2024-02-26T03:16:37;17.67;;;9.27;;
70825;SDS011;58446;41.490;22.098;2024-02-26T03:19:03;16.13;;;9.90;;
70825;SDS011;58446;41.490;22.098;2024-02-26T03:21:29;16.98;;;9.82;;
70825;SDS011;58446;41.490;22.098;2024-02-26T03:23:54;17.77;;;9.43;;
70825;SDS011;58446;41.490;22.098;2024-02-26T03:26:20;17.80;;;10.27;;
70825;SDS011;58446;41.490;22.098;2024-02-26T03:28:46;15.98;;;10.18;;
70825;SDS011;58446;41.490;22.098;2024-02-26T03:31:12;16.08;;;10.07;;
70825;SDS011;58446;41.490;22.098;2024-02-26T03:33:39;16.17;;;9.87;;
70825;SDS011;58446;41.490;22.098;2024-02-26T03:36:04;17.77;;;10.88;;
70825;SDS011;58446;41.490;22.098;2024-02-26T03:38:32;17.95;;;10.38;;
70825;SDS011;58446;41.490;22.098;2024-02-26T03:40:58;14.80;;;9.33;;
70825;SDS011;58446;41.490;22.098;2024-02-26T03:43:24;16.45;;;9.85;;
70825;SDS011;58446;41.490;22.098;2024-02-26T03:45:49;17.40;;;9.77;;
70825;SDS011;58446;41.490;22.098;2024-02-26T03:48:15;15.52;;;9.95;;
70825;SDS011;58446;41.490;22.098;2024-02-26T03:50:41;17.20;;;9.80;;
70825;SDS011;58446;41.490;22.098;2024-02-26T03:53:06;15.27;;;9.23;;
70825;SDS011;58446;41.490;22.098;2024-02-26T03:55:34;14.32;;;9.25;;
70825;SDS011;58446;41.490;22.098;2024-02-26T03:58:00;16.40;;;9.50;;
70825;SDS011;58446;41.490;22.098;2024-02-26T04:00:26;15.50;;;9.30;;
70825;SDS011;58446;41.490;22.098;2024-02-26T04:02:54;14.25;;;9.20;;
70825;SDS011;58446;41.490;22.098;2024-02-26T04:05:19;15.87;;;9.87;;
70825;SDS011;58446;41.490;22.098;2024-02-26T04:07:45;17.67;;;10.02;;
70825;SDS011;58446;41.490;22.098;2024-02-26T04:10:12;15.37;;;9.07;;
70825;SDS011;58446;41.490;22.098;2024-02-26T04:12:39;14.65;;;8.75;;
70825;SDS011;58446;41.490;22.098;2024-02-26T04:15:09;14.82;;;9.25;;
70825;SDS011;58446;41.490;22.098;2024-02-26T04:17:36;15.15;;;9.45;;
70825;SDS011;58446;41.490;22.098;2024-02-26T04:20:03;14.10;;;8.88;;
70825;SDS011;58446;41.490;22.098;2024-02-26T04:22:30;15.37;;;8.97;;
70825;SDS011;58446;41.490;22.098;2024-02-26T04:24:57;15.80;;;9.23;;
70825;SDS011;58446;41.490;22.098;2024-02-26T04:27:22;15.38;;;9.18;;
70825;SDS011;58446;41.490;22.098;2024-02-26T04:29:48;16.63;;;9.50;;
70825;SDS011;58446;41.490;22.098;2024-02-26T04:32:14;17.15;;;9.60;;
70825;SDS011;58446;41.490;22.098;2024-02-26T04:34:40;16.80;;;11.30;;
70825;SDS011;58446;41.490;22.098;2024-02-26T04:37:06;23.20;;;12.52;;
70825;SDS011;58446;41.490;22.098;2024-02-26T04:39:32;17.70;;;9.73;;
70825;SDS011;58446;41.490;22.098;2024-02-26T04:41:58;16.73;;;9.70;;
70825;SDS011;58446;41.490;22.098;2024-02-26T04:44:23;17.80;;;10.27;;
70825;SDS011;58446;41.490;22.098;2024-02-26T04:46:49;16.70;;;10.43;;
70825;SDS011;58446;41.490;22.098;2024-02-26T04:49:15;18.47;;;11.10;;
70825;SDS011;58446;41.490;22.098;2024-02-26T04:51:41;21.63;;;12.18;;
70825;SDS011;58446;41.490;22.098;2024-02-26T04:54:06;21.40;;;11.67;;
70825;SDS011;58446;41.490;22.098;2024-02-26T04:56:32;22.13;;;12.50;;
70825;SDS011;58446;41.490;22.098;2024-02-26T04:58:57;26.77;;;14.23;;
70825;SDS011;58446;41.490;22.098;2024-02-26T05:01:23;25.08;;;13.63;;
70825;SDS011;58446;41.490;22.098;2024-02-26T05:03:49;24.97;;;13.30;;
70825;SDS011;58446;41.490;22.098;2024-02-26T05:06:14;23.33;;;13.30;;
70825;SDS011;58446;41.490;22.098;2024-02-26T05:08:40;20.10;;;12.70;;
70825;SDS011;58446;41.490;22.098;2024-02-26T05:11:06;21.30;;;12.57;;
70825;SDS011;58446;41.490;22.098;2024-02-26T05:13:32;20.52;;;12.23;;
70825;SDS011;58446;41.490;22.098;2024-02-26T05:15:58;23.87;;;14.33;;
70825;SDS011;58446;41.490;22.098;2024-02-26T05:18:23;32.70;;;18.48;;
70825;SDS011;58446;41.490;22.098;2024-02-26T05:20:49;27.97;;;16.90;;
70825;SDS011;58446;41.490;22.098;2024-02-26T05:23:15;32.73;;;19.33;;
70825;SDS011;58446;41.490;22.098;2024-02-26T05:25:40;39.40;;;24.20;;
70825;SDS011;58446;41.490;22.098;2024-02-26T05:28:06;36.75;;;22.02;;
70825;SDS011;58446;41.490;22.098;2024-02-26T05:30:32;38.07;;;22.57;;
70825;SDS011;58446;41.490;22.098;2024-02-26T05:32:58;33.42;;;21.15;;
70825;SDS011;58446;41.490;22.098;2024-02-26T05:35:24;35.05;;;21.08;;
70825;SDS011;58446;41.490;22.098;2024-02-26T05:37:51;31.47;;;18.90;;
70825;SDS011;58446;41.490;22.098;2024-02-26T05:40:16;32.25;;;18.83;;
70825;SDS011;58446;41.490;22.098;2024-02-26T05:42:42;28.93;;;17.60;;
70825;SDS011;58446;41.490;22.098;2024-02-26T05:45:10;27.10;;;17.38;;
70825;SDS011;58446;41.490;22.098;2024-02-26T05:47:35;28.67;;;16.27;;
70825;SDS011;58446;41.490;22.098;2024-02-26T05:50:07;27.52;;;16.38;;
70825;SDS011;58446;41.490;22.098;2024-02-26T05:52:36;32.53;;;19.37;;
70825;SDS011;58446;41.490;22.098;2024-02-26T05:55:03;27.90;;;17.08;;
70825;SDS011;58446;41.490;22.098;2024-02-26T05:57:29;25.17;;;16.30;;
70825;SDS011;58446;41.490;22.098;2024-02-26T05:59:56;26.15;;;16.02;;
70825;SDS011;58446;41.490;22.098;2024-02-26T06:02:22;26.20;;;16.60;;
70825;SDS011;58446;41.490;22.098;2024-02-26T06:04:47;23.35;;;14.05;;
70825;SDS011;58446;41.490;22.098;2024-02-26T06:07:13;24.80;;;14.67;;
70825;SDS011;58446;41.490;22.098;2024-02-26T06:09:39;22.77;;;14.43;;
70825;SDS011;58446;41.490;22.098;2024-02-26T06:12:04;23.13;;;13.50;;
70825;SDS011;58446;41.490;22.098;2024-02-26T06:14:30;24.67;;;14.40;;
70825;SDS011;58446;41.490;22.098;2024-02-26T06:16:56;21.63;;;13.97;;
70825;SDS011;58446;41.490;22.098;2024-02-26T06:19:22;25.35;;;15.10;;
70825;SDS011;58446;41.490;22.098;2024-02-26T06:21:47;22.93;;;13.90;;
70825;SDS011;58446;41.490;22.098;2024-02-26T06:24:13;25.15;;;14.25;;
70825;SDS011;58446;41.490;22.098;2024-02-26T06:26:39;23.03;;;14.23;;
70825;SDS011;58446;41.490;22.098;2024-02-26T06:29:04;21.85;;;12.88;;
70825;SDS011;58446;41.490;22.098;2024-02-26T06:31:30;19.17;;;11.80;;
70825;SDS011;58446;41.490;22.098;2024-02-26T06:33:56;19.27;;;11.23;;
70825;SDS011;58446;41.490;22.098;2024-02-26T06:36:22;17.80;;;11.33;;
70825;SDS011;58446;41.490;22.098;2024-02-26T06:38:47;17.60;;;10.68;;
70825;SDS011;58446;41.490;22.098;2024-02-26T06:41:14;18.42;;;11.85;;
70825;SDS011;58446;41.490;22.098;2024-02-26T06:43:40;16.10;;;11.20;;
70825;SDS011;58446;41.490;22.098;2024-02-26T06:46:06;16.77;;;10.87;;
70825;SDS011;58446;41.490;22.098;2024-02-26T06:48:32;16.35;;;11.10;;
70825;SDS011;58446;41.490;22.098;2024-02-26T06:50:58;14.87;;;9.80;;
70825;SDS011;58446;41.490;22.098;2024-02-26T06:53:24;14.77;;;9.53;;
70825;SDS011;58446;41.490;22.098;2024-02-26T06:55:50;16.48;;;10.82;;
70825;SDS011;58446;41.490;22.098;2024-02-26T06:58:16;14.75;;;9.18;;
70825;SDS011;58446;41.490;22.098;2024-02-26T07:00:42;16.70;;;10.23;;
70825;SDS011;58446;41.490;22.098;2024-02-26T07:03:08;17.00;;;9.07;;
70825;SDS011;58446;41.490;22.098;2024-02-26T07:05:33;15.80;;;9.03;;
70825;SDS011;58446;41.490;22.098;2024-02-26T07:07:59;14.52;;;9.65;;
70825;SDS011;58446;41.490;22.098;2024-02-26T07:10:25;15.50;;;9.73;;
70825;SDS011;58446;41.490;22.098;2024-02-26T07:12:50;16.95;;;10.00;;
70825;SDS011;58446;41.490;22.098;2024-02-26T07:15:16;15.40;;;9.90;;
70825;SDS011;58446;41.490;22.098;2024-02-26T07:17:42;17.70;;;10.23;;
70825;SDS011;58446;41.490;22.098;2024-02-26T07:20:12;14.52;;;9.50;;
70825;SDS011;58446;41.490;22.098;2024-02-26T07:22:39;16.77;;;9.93;;
70825;SDS011;58446;41.490;22.098;2024-02-26T07:25:05;15.38;;;9.57;;
70825;SDS011;58446;41.490;22.098;2024-02-26T07:27:33;16.45;;;10.27;;
70825;SDS011;58446;41.490;22.098;2024-02-26T07:29:59;13.30;;;8.43;;
70825;SDS011;58446;41.490;22.098;2024-02-26T07:32:24;15.37;;;9.40;;
70825;SDS011;58446;41.490;22.098;2024-02-26T07:34:50;14.52;;;10.70;;
70825;SDS011;58446;41.490;22.098;2024-02-26T07:37:16;14.73;;;9.67;;
70825;SDS011;58446;41.490;22.098;2024-02-26T07:39:41;14.82;;;9.48;;
70825;SDS011;58446;41.490;22.098;2024-02-26T07:42:07;14.95;;;9.18;;
70825;SDS011;58446;41.490;22.098;2024-02-26T07:44:33;15.67;;;10.87;;
70825;SDS011;58446;41.490;22.098;2024-02-26T07:46:59;17.85;;;10.70;;
70825;SDS011;58446;41.490;22.098;2024-02-26T07:49:25;17.13;;;10.90;;
70825;SDS011;58446;41.490;22.098;2024-02-26T07:51:50;17.17;;;11.45;;
70825;SDS011;58446;41.490;22.098;2024-02-26T07:54:16;15.23;;;10.97;;
70825;SDS011;58446;41.490;22.098;2024-02-26T07:56:43;15.60;;;10.02;;
70825;SDS011;58446;41.490;22.098;2024-02-26T07:59:09;15.90;;;10.32;;
70825;SDS011;58446;41.490;22.098;2024-02-26T08:01:35;16.37;;;10.10;;
70825;SDS011;58446;41.490;22.098;2024-02-26T08:04:00;16.05;;;10.18;;
70825;SDS011;58446;41.490;22.098;2024-02-26T08:06:26;18.40;;;10.33;;
70825;SDS011;58446;41.490;22.098;2024-02-26T08:08:52;15.55;;;10.10;;
70825;SDS011;58446;41.490;22.098;2024-02-26T08:11:18;14.40;;;9.63;;
70825;SDS011;58446;41.490;22.098;2024-02-26T08:13:43;16.87;;;9.87;;
70825;SDS011;58446;41.490;22.098;2024-02-26T08:16:09;20.90;;;13.98;;
70825;SDS011;58446;41.490;22.098;2024-02-26T08:18:35;20.45;;;13.45;;
70825;SDS011;58446;41.490;22.098;2024-02-26T08:21:01;15.47;;;10.10;;
70825;SDS011;58446;41.490;22.098;2024-02-26T08:23:27;17.45;;;10.60;;
70825;SDS011;58446;41.490;22.098;2024-02-26T08:25:54;23.42;;;16.15;;
70825;SDS011;58446;41.490;22.098;2024-02-26T08:28:19;19.37;;;12.27;;
70825;SDS011;58446;41.490;22.098;2024-02-26T08:30:45;17.85;;;10.35;;
70825;SDS011;58446;41.490;22.098;2024-02-26T08:33:11;13.73;;;9.10;;
70825;SDS011;58446;41.490;22.098;2024-02-26T08:35:37;15.55;;;9.75;;
70825;SDS011;58446;41.490;22.098;2024-02-26T08:38:02;19.20;;;13.10;;
70825;SDS011;58446;41.490;22.098;2024-02-26T08:40:29;25.23;;;16.30;;
70825;SDS011;58446;41.490;22.098;2024-02-26T08:42:55;18.95;;;12.07;;
70825;SDS011;58446;41.490;22.098;2024-02-26T08:45:20;20.55;;;13.40;;
70825;SDS011;58446;41.490;22.098;2024-02-26T08:47:46;19.97;;;12.60;;
70825;SDS011;58446;41.490;22.098;2024-02-26T08:50:13;21.48;;;13.15;;
70825;SDS011;58446;41.490;22.098;2024-02-26T08:52:39;20.63;;;14.02;;
70825;SDS011;58446;41.490;22.098;2024-02-26T08:55:05;20.83;;;14.18;;
70825;SDS011;58446;41.490;22.098;2024-02-26T08:57:33;20.47;;;14.03;;
70825;SDS011;58446;41.490;22.098;2024-02-26T09:00:00;22.35;;;15.10;;
70825;SDS011;58446;41.490;22.098;2024-02-26T09:02:26;22.73;;;13.82;;
70825;SDS011;58446;41.490;22.098;2024-02-26T09:04:52;18.77;;;12.00;;
70825;SDS011;58446;41.490;22.098;2024-02-26T09:07:20;17.35;;;12.80;;
70825;SDS011;58446;41.490;22.098;2024-02-26T09:09:46;17.87;;;12.83;;
70825;SDS011;58446;41.490;22.098;2024-02-26T09:12:12;21.05;;;14.70;;
70825;SDS011;58446;41.490;22.098;2024-02-26T09:14:37;20.63;;;13.17;;
70825;SDS011;58446;41.490;22.098;2024-02-26T09:17:03;19.33;;;12.57;;
70825;SDS011;58446;41.490;22.098;2024-02-26T09:19:31;18.27;;;12.65;;
70825;SDS011;58446;41.490;22.098;2024-02-26T09:21:56;17.30;;;11.03;;
70825;SDS011;58446;41.490;22.098;2024-02-26T09:24:24;17.13;;;10.70;;
70825;SDS011;58446;41.490;22.098;2024-02-26T09:26:50;18.45;;;12.73;;
70825;SDS011;58446;41.490;22.098;2024-02-26T09:29:16;15.82;;;10.95;;
70825;SDS011;58446;41.490;22.098;2024-02-26T09:31:42;18.67;;;11.05;;
70825;SDS011;58446;41.490;22.098;2024-02-26T09:34:12;18.60;;;12.03;;
70825;SDS011;58446;41.490;22.098;2024-02-26T09:36:37;17.52;;;11.40;;
70825;SDS011;58446;41.490;22.098;2024-02-26T09:39:03;16.13;;;11.07;;
70825;SDS011;58446;41.490;22.098;2024-02-26T09:41:29;17.85;;;10.82;;
70825;SDS011;58446;41.490;22.098;2024-02-26T09:43:58;16.70;;;10.53;;
70825;SDS011;58446;41.490;22.098;2024-02-26T09:46:28;17.02;;;9.73;;
70825;SDS011;58446;41.490;22.098;2024-02-26T09:48:54;17.80;;;9.70;;
70825;SDS011;58446;41.490;22.098;2024-02-26T09:51:22;16.83;;;9.68;;
70825;SDS011;58446;41.490;22.098;2024-02-26T09:53:51;18.23;;;10.48;;
70825;SDS011;58446;41.490;22.098;2024-02-26T09:56:17;16.87;;;11.10;;
70825;SDS011;58446;41.490;22.098;2024-02-26T09:58:44;17.20;;;11.45;;
70825;SDS011;58446;41.490;22.098;2024-02-26T10:01:17;17.17;;;10.50;;
70825;SDS011;58446;41.490;22.098;2024-02-26T10:03:44;15.85;;;10.15;;
70825;SDS011;58446;41.490;22.098;2024-02-26T10:06:16;14.75;;;9.68;;
70825;SDS011;58446;41.490;22.098;2024-02-26T10:08:42;15.90;;;9.20;;
70825;SDS011;58446;41.490;22.098;2024-02-26T10:11:09;14.88;;;9.35;;
70825;SDS011;58446;41.490;22.098;2024-02-26T10:13:35;14.40;;;9.52;;
70825;SDS011;58446;41.490;22.098;2024-02-26T10:16:02;20.30;;;10.57;;
70825;SDS011;58446;41.490;22.098;2024-02-26T10:18:50;17.55;;;10.10;;
70825;SDS011;58446;41.490;22.098;2024-02-26T10:21:24;14.88;;;9.35;;
70825;SDS011;58446;41.490;22.098;2024-02-26T10:23:49;14.43;;;9.37;;
70825;SDS011;58446;41.490;22.098;2024-02-26T10:26:19;13.07;;;7.85;;
70825;SDS011;58446;41.490;22.098;2024-02-26T10:28:45;16.48;;;9.35;;
70825;SDS011;58446;41.490;22.098;2024-02-26T10:31:11;13.70;;;8.27;;
70825;SDS011;58446;41.490;22.098;2024-02-26T10:33:39;13.30;;;8.30;;
70825;SDS011;58446;41.490;22.098;2024-02-26T10:36:07;14.37;;;8.57;;
70825;SDS011;58446;41.490;22.098;2024-02-26T10:38:34;14.73;;;8.20;;
70825;SDS011;58446;41.490;22.098;2024-02-26T10:41:04;13.52;;;8.27;;
70825;SDS011;58446;41.490;22.098;2024-02-26T10:43:31;14.68;;;8.07;;
70825;SDS011;58446;41.490;22.098;2024-02-26T10:45:57;12.97;;;8.87;;
70825;SDS011;58446;41.490;22.098;2024-02-26T10:48:23;12.88;;;7.65;;
70825;SDS011;58446;41.490;22.098;2024-02-26T10:50:48;13.90;;;7.93;;
70825;SDS011;58446;41.490;22.098;2024-02-26T10:53:17;15.50;;;9.33;;
70825;SDS011;58446;41.490;22.098;2024-02-26T10:55:47;20.98;;;10.73;;
70825;SDS011;58446;41.490;22.098;2024-02-26T10:58:17;19.58;;;12.18;;
70825;SDS011;58446;41.490;22.098;2024-02-26T11:00:45;17.42;;;10.70;;
70825;SDS011;58446;41.490;22.098;2024-02-26T11:03:13;15.68;;;9.02;;
70825;SDS011;58446;41.490;22.098;2024-02-26T11:05:42;14.47;;;9.07;;
70825;SDS011;58446;41.490;22.098;2024-02-26T11:08:09;16.70;;;10.15;;
70825;SDS011;58446;41.490;22.098;2024-02-26T11:10:36;19.42;;;9.48;;
70825;SDS011;58446;41.490;22.098;2024-02-26T11:13:03;10.38;;;6.10;;
70825;SDS011;58446;41.490;22.098;2024-02-26T11:15:31;10.95;;;5.97;;
70825;SDS011;58446;41.490;22.098;2024-02-26T11:17:58;8.20;;;4.90;;
70825;SDS011;58446;41.490;22.098;2024-02-26T11:20:28;8.50;;;3.97;;
70825;SDS011;58446;41.490;22.098;2024-02-26T11:22:57;7.85;;;3.75;;
70825;SDS011;58446;41.490;22.098;2024-02-26T11:25:22;7.53;;;3.90;;
70825;SDS011;58446;41.490;22.098;2024-02-26T11:27:53;8.15;;;4.05;;
70825;SDS011;58446;41.490;22.098;2024-02-26T11:30:23;7.97;;;4.38;;
70825;SDS011;58446;41.490;22.098;2024-02-26T11:32:51;8.02;;;4.07;;
70825;SDS011;58446;41.490;22.098;2024-02-26T11:35:18;8.80;;;4.80;;
70825;SDS011;58446;41.490;22.098;2024-02-26T11:37:51;11.73;;;4.53;;
70825;SDS011;58446;41.490;22.098;2024-02-26T11:40:22;9.00;;;4.43;;
70825;SDS011;58446;41.490;22.098;2024-02-26T11:42:50;9.80;;;4.80;;
70825;SDS011;58446;41.490;22.098;2024-02-26T11:48:16;9.07;;;4.28;;
70825;SDS011;58446;41.490;22.098;2024-02-26T11:50:49;8.70;;;4.40;;
70825;SDS011;58446;41.490;22.098;2024-02-26T11:53:22;7.30;;;4.20;;
70825;SDS011;58446;41.490;22.098;2024-02-26T11:59:37;8.93;;;4.18;;
70825;SDS011;58446;41.490;22.098;2024-02-26T12:01:58;8.05;;;4.45;;
70825;SDS011;58446;41.490;22.098;2024-02-26T12:04:26;8.17;;;4.23;;
70825;SDS011;58446;41.490;22.098;2024-02-26T12:06:57;8.23;;;4.10;;
70825;SDS011;58446;41.490;22.098;2024-02-26T12:09:39;8.80;;;4.80;;
70825;SDS011;58446;41.490;22.098;2024-02-26T12:12:06;7.95;;;4.13;;
70825;SDS011;58446;41.490;22.098;2024-02-26T12:14:39;11.18;;;4.40;;
70825;SDS011;58446;41.490;22.098;2024-02-26T12:17:06;9.73;;;3.67;;
70825;SDS011;58446;41.490;22.098;2024-02-26T12:19:43;7.97;;;3.58;;
70825;SDS011;58446;41.490;22.098;2024-02-26T12:22:12;8.02;;;3.90;;
70825;SDS011;58446;41.490;22.098;2024-02-26T12:24:39;10.00;;;3.97;;
70825;SDS011;58446;41.490;22.098;2024-02-26T12:27:05;8.63;;;4.07;;
70825;SDS011;58446;41.490;22.098;2024-02-26T12:29:31;7.03;;;3.65;;
70825;SDS011;58446;41.490;22.098;2024-02-26T12:31:57;6.55;;;3.55;;
70825;SDS011;58446;41.490;22.098;2024-02-26T12:34:23;6.97;;;3.40;;
70825;SDS011;58446;41.490;22.098;2024-02-26T12:36:49;7.80;;;3.60;;
70825;SDS011;58446;41.490;22.098;2024-02-26T12:39:14;6.85;;;3.25;;
70825;SDS011;58446;41.490;22.098;2024-02-26T12:41:40;7.73;;;3.80;;
70825;SDS011;58446;41.490;22.098;2024-02-26T12:44:07;8.02;;;3.95;;
70825;SDS011;58446;41.490;22.098;2024-02-26T12:46:33;7.45;;;3.75;;
70825;SDS011;58446;41.490;22.098;2024-02-26T12:48:59;10.03;;;3.63;;
70825;SDS011;58446;41.490;22.098;2024-02-26T12:51:25;7.65;;;3.78;;
70825;SDS011;58446;41.490;22.098;2024-02-26T12:53:52;7.10;;;3.80;;
70825;SDS011;58446;41.490;22.098;2024-02-26T12:56:19;6.93;;;3.95;;
70825;SDS011;58446;41.490;22.098;2024-02-26T12:58:45;7.95;;;4.22;;
70825;SDS011;58446;41.490;22.098;2024-02-26T13:01:14;6.88;;;3.92;;
70825;SDS011;58446;41.490;22.098;2024-02-26T13:03:42;8.95;;;4.68;;
70825;SDS011;58446;41.490;22.098;2024-02-26T13:06:08;7.90;;;4.03;;
70825;SDS011;58446;41.490;22.098;2024-02-26T13:08:35;7.97;;;4.18;;
70825;SDS011;58446;41.490;22.098;2024-02-26T13:11:01;9.05;;;4.32;;
70825;SDS011;58446;41.490;22.098;2024-02-26T13:13:26;8.88;;;3.97;;
70825;SDS011;58446;41.490;22.098;2024-02-26T13:16:02;10.07;;;4.50;;
70825;SDS011;58446;41.490;22.098;2024-02-26T13:18:30;13.02;;;5.03;;
70825;SDS011;58446;41.490;22.098;2024-02-26T13:21:12;8.77;;;4.22;;
70825;SDS011;58446;41.490;22.098;2024-02-26T13:23:42;9.07;;;3.75;;
70825;SDS011;58446;41.490;22.098;2024-02-26T13:26:08;17.83;;;9.88;;
70825;SDS011;58446;41.490;22.098;2024-02-26T13:28:37;25.23;;;16.17;;
70825;SDS011;58446;41.490;22.098;2024-02-26T13:31:03;7.80;;;4.75;;
70825;SDS011;58446;41.490;22.098;2024-02-26T13:33:30;10.95;;;4.68;;
70825;SDS011;58446;41.490;22.098;2024-02-26T13:35:57;9.63;;;4.90;;
70825;SDS011;58446;41.490;22.098;2024-02-26T13:38:24;11.23;;;7.47;;
70825;SDS011;58446;41.490;22.098;2024-02-26T13:40:50;12.48;;;6.65;;
70825;SDS011;58446;41.490;22.098;2024-02-26T13:43:17;9.52;;;5.90;;
70825;SDS011;58446;41.490;22.098;2024-02-26T13:45:43;7.43;;;3.80;;
70825;SDS011;58446;41.490;22.098;2024-02-26T13:48:10;14.05;;;8.75;;
70825;SDS011;58446;41.490;22.098;2024-02-26T13:50:36;8.43;;;4.77;;
70825;SDS011;58446;41.490;22.098;2024-02-26T13:53:08;8.48;;;4.57;;
70825;SDS011;58446;41.490;22.098;2024-02-26T13:55:33;9.95;;;6.38;;
70825;SDS011;58446;41.490;22.098;2024-02-26T13:57:59;8.43;;;4.83;;
70825;SDS011;58446;41.490;22.098;2024-02-26T14:00:28;12.80;;;5.20;;
70825;SDS011;58446;41.490;22.098;2024-02-26T14:02:59;10.77;;;6.28;;
70825;SDS011;58446;41.490;22.098;2024-02-26T14:05:25;8.13;;;4.60;;
70825;SDS011;58446;41.490;22.098;2024-02-26T14:07:52;9.23;;;4.30;;
70825;SDS011;58446;41.490;22.098;2024-02-26T14:10:19;11.73;;;5.13;;
70825;SDS011;58446;41.490;22.098;2024-02-26T14:12:44;10.23;;;5.32;;
70825;SDS011;58446;41.490;22.098;2024-02-26T14:15:10;10.37;;;5.40;;
70825;SDS011;58446;41.490;22.098;2024-02-26T14:17:36;8.70;;;3.92;;
70825;SDS011;58446;41.490;22.098;2024-02-26T14:20:02;9.07;;;5.03;;
70825;SDS011;58446;41.490;22.098;2024-02-26T14:22:28;9.17;;;5.23;;